Time;durP1;ratioP1;P1;durP2;ratioP2;P2;SDS_P1;SDS_P2;PMS_P1;PMS_P2;Temp;Humidity;BMP_temperature;BMP_pressure;BME280_temperature;BME280_humidity;BME280_pressure;Samples;Min_cycle;Max_cycle;Signal;HPM_P1;HPM_P2
2023/04/13 00:03:24;;;;;;;23.03;14.63;;;;;;;8.32;100.00;99453.06;4996995;57;1141139;-70
2023/04/13 00:08:29;;;;;;;25.07;15.73;;;;;;;8.31;100.00;99440.81;5022644;57;1141119;-71
2023/04/13 00:13:39;;;;;;;29.40;17.33;;;;;;;8.30;100.00;99428.61;5022887;57;1140889;-73
2023/04/13 00:18:42;;;;;;;21.35;14.28;;;;;;;8.28;100.00;99407.31;5022802;57;1141099;-69
2023/04/13 00:23:48;;;;;;;23.37;14.70;;;;;;;8.27;100.00;99409.59;4997840;57;1140835;-72
2023/04/13 00:28:54;;;;;;;25.97;15.63;;;;;;;8.27;100.00;99403.84;4962080;57;1140847;-69
2023/04/13 00:34:00;;;;;;;25.57;15.60;;;;;;;8.23;100.00;99405.09;5011087;57;1140854;-69
2023/04/13 00:39:06;;;;;;;29.27;16.12;;;;;;;8.22;100.00;99390.73;5030331;57;1141070;-72
2023/04/13 00:44:11;;;;;;;23.10;15.15;;;;;;;8.21;100.00;99389.06;5011411;56;1141112;-71
2023/04/13 00:49:18;;;;;;;20.63;14.33;;;;;;;8.19;100.00;99387.03;5011125;56;1141039;-71
2023/04/13 00:54:24;;;;;;;22.30;14.93;;;;;;;8.18;100.00;99384.89;5030557;56;1140855;-73
2023/04/13 00:59:30;;;;;;;22.97;15.90;;;;;;;8.19;100.00;99388.36;5011119;56;1140949;-72
2023/04/13 01:04:38;;;;;;;24.27;16.20;;;;;;;8.18;100.00;99403.32;4994279;56;1140934;-70
2023/04/13 01:10:09;;;;;;;26.23;15.72;;;;;;;8.13;100.00;99399.75;5010961;56;1140928;-72
2023/04/13 01:15:17;;;;;;;27.40;14.53;;;;;;;8.08;100.00;99402.45;5029420;57;1141013;-71
2023/04/13 01:20:25;;;;;;;22.87;15.63;;;;;;;8.07;100.00;99416.09;5010841;56;1140935;-73
2023/04/13 01:25:44;;;;;;;24.17;15.40;;;;;;;8.08;100.00;99411.19;5021679;57;1141151;-72
2023/04/13 01:30:53;;;;;;;22.35;14.58;;;;;;;8.06;100.00;99414.91;5031789;56;1141052;-69
2023/04/13 01:36:01;;;;;;;25.67;14.43;;;;;;;8.03;100.00;99441.01;5051395;57;1140995;-70
2023/04/13 01:41:08;;;;;;;25.48;16.40;;;;;;;8.08;100.00;99445.90;5031446;57;1140868;-69
2023/04/13 01:46:15;;;;;;;26.87;15.78;;;;;;;8.07;100.00;99441.11;5031479;57;1140980;-71
2023/04/13 01:51:35;;;;;;;23.10;15.20;;;;;;;8.07;100.00;99452.13;5050313;57;1141132;-72
2023/04/13 01:56:43;;;;;;;24.30;14.70;;;;;;;8.02;100.00;99441.14;5031162;56;1140951;-72
2023/04/13 02:01:49;;;;;;;23.97;14.97;;;;;;;8.05;100.00;99443.03;5013308;57;1141141;-73
2023/04/13 02:06:55;;;;;;;21.37;14.93;;;;;;;8.04;100.00;99436.09;5095445;56;1140864;-71
2023/04/13 02:12:02;;;;;;;25.50;17.90;;;;;;;8.02;100.00;99434.08;5030833;57;1141159;-73
2023/04/13 02:17:08;;;;;;;29.23;15.98;;;;;;;7.98;100.00;99426.07;5026852;56;1141075;-71
2023/04/13 02:22:15;;;;;;;21.70;15.13;;;;;;;7.97;100.00;99429.66;5050666;56;1140981;-72
2023/04/13 02:27:21;;;;;;;26.43;16.87;;;;;;;7.97;100.00;99425.72;5016412;56;1141107;-71
2023/04/13 02:32:28;;;;;;;35.23;18.30;;;;;;;7.95;100.00;99422.37;5002778;57;1140902;-72
2023/04/13 02:37:38;;;;;;;27.13;18.10;;;;;;;7.93;100.00;99424.33;5022277;57;1141077;-72
2023/04/13 02:42:42;;;;;;;29.83;17.20;;;;;;;7.88;100.00;99417.77;4998676;57;1140836;-70
2023/04/13 02:47:48;;;;;;;26.03;16.53;;;;;;;7.92;100.00;99434.98;4999028;57;1141033;-73
2023/04/13 02:52:54;;;;;;;25.27;17.27;;;;;;;7.95;100.00;99435.53;5018317;57;1140937;-73
2023/04/13 02:58:00;;;;;;;29.30;18.80;;;;;;;7.96;100.00;99437.69;4931665;57;1141295;-71
2023/04/13 03:03:07;;;;;;;27.42;17.95;;;;;;;7.95;100.00;99440.80;4918251;57;1141038;-69
2023/04/13 03:08:14;;;;;;;28.87;17.80;;;;;;;7.93;100.00;99444.55;4937346;57;1138822;-68
2023/04/13 03:13:21;;;;;;;25.70;15.07;;;;;;;7.93;100.00;99442.76;4917079;56;1141041;-71
2023/04/13 03:18:29;;;;;;;31.20;17.57;;;;;;;8.00;100.00;99448.33;4945619;56;1141055;-71
2023/04/13 03:23:35;;;;;;;26.43;18.07;;;;;;;8.00;100.00;99448.33;5018104;57;1141142;-69
2023/04/13 03:28:42;;;;;;;31.03;17.40;;;;;;;7.99;100.00;99446.66;5001192;56;1141034;-70
2023/04/13 03:33:49;;;;;;;27.75;17.00;;;;;;;7.98;100.00;99451.56;5031218;56;1138914;-66
2023/04/13 03:38:56;;;;;;;25.47;17.23;;;;;;;7.98;100.00;99447.61;5050911;57;1140863;-68
2023/04/13 03:44:03;;;;;;;23.80;16.40;;;;;;;7.91;100.00;99452.58;5031085;56;1140959;-69
2023/04/13 03:49:11;;;;;;;28.15;19.20;;;;;;;7.89;100.00;99454.50;5031125;56;1140872;-66
2023/04/13 03:54:17;;;;;;;28.32;17.87;;;;;;;7.89;100.00;99447.08;5050822;57;1141060;-67
2023/04/13 03:59:23;;;;;;;32.07;18.73;;;;;;;7.82;100.00;99444.59;4953753;57;1141060;-69
2023/04/13 04:04:29;;;;;;;31.57;22.07;;;;;;;7.80;100.00;99460.98;4954936;57;1138892;-69
2023/04/13 04:09:35;;;;;;;29.47;19.17;;;;;;;7.81;100.00;99456.91;4965044;57;1141016;-69
2023/04/13 04:14:41;;;;;;;30.87;18.63;;;;;;;7.80;100.00;99469.72;4980634;57;1141271;-70
2023/04/13 04:19:48;;;;;;;42.10;22.27;;;;;;;7.81;100.00;99475.34;5030064;57;1141017;-70
2023/04/13 04:24:59;;;;;;;43.20;29.60;;;;;;;7.80;100.00;99478.09;5051307;56;1141216;-67
2023/04/13 04:30:09;;;;;;;35.67;21.10;;;;;;;7.72;100.00;99484.84;5036268;56;1141112;-67
2023/04/13 04:35:15;;;;;;;28.93;18.63;;;;;;;7.73;100.00;99485.68;5101020;56;1140844;-66
2023/04/13 04:40:22;;;;;;;36.30;21.30;;;;;;;7.73;100.00;99481.25;5095687;56;1140965;-68
2023/04/13 04:45:29;;;;;;;45.33;25.60;;;;;;;7.72;100.00;99480.06;5106680;56;1140868;-66
2023/04/13 04:50:36;;;;;;;35.13;19.50;;;;;;;7.71;100.00;99484.97;5106592;55;1140963;-67
2023/04/13 04:55:46;;;;;;;31.55;17.62;;;;;;;7.71;100.00;99479.70;5105644;55;1140950;-68
2023/04/13 05:00:55;;;;;;;31.43;20.57;;;;;;;7.75;100.00;99475.39;5121179;55;1140976;-67
2023/04/13 05:06:03;;;;;;;39.38;21.93;;;;;;;7.75;100.00;99462.23;5048919;56;1142049;-67
2023/04/13 05:11:10;;;;;;;36.75;19.98;;;;;;;7.75;100.00;99458.28;5031264;55;1141070;-69
2023/04/13 05:16:16;;;;;;;34.33;19.47;;;;;;;7.72;100.00;99459.01;5016291;56;1146574;-69
2023/04/13 05:21:22;;;;;;;26.87;18.37;;;;;;;7.73;100.00;99468.58;5031390;57;1140885;-69
2023/04/13 05:26:29;;;;;;;31.13;18.87;;;;;;;7.78;100.00;99476.10;5030855;56;1140970;-71
2023/04/13 05:31:37;;;;;;;30.30;19.92;;;;;;;7.85;100.00;99478.08;5045537;56;1141061;-70
2023/04/13 05:36:42;;;;;;;31.10;19.87;;;;;;;7.90;100.00;99483.81;5050303;56;1140948;-70
2023/04/13 05:41:50;;;;;;;34.20;21.53;;;;;;;7.94;100.00;99495.77;5031597;57;1141083;-70
2023/04/13 05:46:57;;;;;;;36.30;18.77;;;;;;;7.94;100.00;99497.08;5032115;57;1140923;-68
2023/04/13 05:52:05;;;;;;;30.10;18.85;;;;;;;7.95;100.00;99490.83;5041347;56;1140986;-70
2023/04/13 05:57:21;;;;;;;33.78;21.00;;;;;;;7.97;100.00;99490.22;5031429;56;1140880;-68
2023/04/13 06:02:28;;;;;;;29.00;19.97;;;;;;;8.00;100.00;99492.60;5021965;56;1140980;-68
2023/04/13 06:07:34;;;;;;;34.77;20.50;;;;;;;8.06;100.00;99505.27;5067369;56;1140949;-69
2023/04/13 06:12:40;;;;;;;35.30;21.27;;;;;;;8.11;100.00;99511.45;5031188;56;1141022;-70
2023/04/13 06:17:46;;;;;;;37.03;22.27;;;;;;;8.16;100.00;99512.39;5031318;56;1141113;-69
2023/04/13 06:22:51;;;;;;;38.45;23.73;;;;;;;8.22;100.00;99521.11;5050653;56;1141225;-71
2023/04/13 06:28:01;;;;;;;35.87;21.80;;;;;;;8.28;100.00;99531.95;5031137;56;1141079;-69
2023/04/13 06:33:09;;;;;;;37.63;24.63;;;;;;;8.24;100.00;99524.45;5029917;56;1140848;-70
2023/04/13 06:38:15;;;;;;;41.90;22.98;;;;;;;8.19;100.00;99526.15;5023084;55;1140895;-72
2023/04/13 06:43:25;;;;;;;44.87;27.60;;;;;;;8.19;100.00;99529.27;5002288;55;1141115;-71
2023/04/13 06:48:32;;;;;;;38.87;21.13;;;;;;;8.23;100.00;99538.59;5001830;56;1140973;-68
2023/04/13 06:53:40;;;;;;;42.10;24.80;;;;;;;8.27;100.00;99535.55;5003094;56;1141068;-70
2023/04/13 06:58:45;;;;;;;45.40;24.17;;;;;;;8.32;100.00;99537.36;5022566;57;1140832;-69
2023/04/13 07:03:52;;;;;;;47.20;28.20;;;;;;;8.36;100.00;99542.73;5000228;56;1141076;-70
2023/04/13 07:08:59;;;;;;;64.83;39.10;;;;;;;8.34;100.00;99542.02;5003000;56;1140812;-68
2023/04/13 07:14:07;;;;;;;39.00;22.07;;;;;;;8.36;100.00;99549.80;5022732;56;1140934;-68
2023/04/13 07:19:13;;;;;;;47.73;25.97;;;;;;;8.37;100.00;99551.47;5003290;56;1140879;-67
2023/04/13 07:24:19;;;;;;;33.93;18.97;;;;;;;8.43;100.00;99561.00;5003046;56;1141052;-69
2023/04/13 07:29:26;;;;;;;32.23;20.17;;;;;;;8.52;100.00;99559.89;5022507;56;1140898;-70
2023/04/13 07:34:35;;;;;;;34.70;20.25;;;;;;;8.53;100.00;99574.25;5002683;56;1140960;-69
2023/04/13 07:39:42;;;;;;;35.83;19.90;;;;;;;8.54;100.00;99578.56;5030156;56;1140952;-72
2023/04/13 07:44:48;;;;;;;36.73;20.17;;;;;;;8.54;100.00;99582.52;5032977;56;1141016;-70
2023/04/13 07:49:54;;;;;;;32.57;18.13;;;;;;;8.61;100.00;99585.45;5052479;56;1140985;-70
2023/04/13 07:55:02;;;;;;;36.23;18.53;;;;;;;8.63;100.00;99594.07;5032641;56;1141015;-70
2023/04/13 08:00:11;;;;;;;34.83;19.98;;;;;;;8.68;100.00;99603.75;5028294;56;1140928;-69
2023/04/13 08:05:21;;;;;;;35.60;21.07;;;;;;;8.69;100.00;99600.99;4991682;55;1140924;-68
2023/04/13 08:10:27;;;;;;;29.03;16.47;;;;;;;8.70;100.00;99587.33;4874550;58;1141107;-70
2023/04/13 08:15:34;;;;;;;29.00;16.70;;;;;;;8.78;100.00;99610.75;4868210;58;1141167;-69
2023/04/13 08:20:39;;;;;;;35.43;19.47;;;;;;;8.89;100.00;99615.09;4868355;58;1141187;-72
2023/04/13 08:25:46;;;;;;;27.43;17.13;;;;;;;8.98;100.00;99621.41;4887271;58;1141140;-72
2023/04/13 08:30:53;;;;;;;30.87;19.83;;;;;;;9.06;100.00;99635.60;4868719;58;1141162;-71
2023/04/13 08:35:58;;;;;;;39.70;16.43;;;;;;;9.11;100.00;99640.02;4868356;58;1141068;-69
2023/04/13 08:41:07;;;;;;;25.63;16.80;;;;;;;9.17;100.00;99639.95;4887627;58;1140878;-72
2023/04/13 08:46:18;;;;;;;32.40;21.45;;;;;;;9.23;100.00;99642.56;4859119;58;1140947;-68
2023/04/13 08:51:28;;;;;;;32.77;21.27;;;;;;;9.18;100.00;99645.09;4868153;58;1140893;-70
2023/04/13 08:56:34;;;;;;;35.27;20.33;;;;;;;9.14;100.00;99642.39;4887258;58;1141205;-71
2023/04/13 09:01:43;;;;;;;26.67;17.27;;;;;;;9.09;100.00;99636.66;4889907;57;1140884;-70
2023/04/13 09:06:50;;;;;;;28.70;17.07;;;;;;;9.14;100.00;99635.80;4998853;57;1141472;-68
2023/04/13 09:11:57;;;;;;;58.67;35.63;;;;;;;9.23;100.00;99646.03;4967633;57;1140876;-70
2023/04/13 09:17:03;;;;;;;31.73;21.37;;;;;;;9.28;100.00;99638.56;4918024;57;1140961;-68
2023/04/13 09:22:14;;;;;;;27.37;18.80;;;;;;;9.33;100.00;99642.94;4918451;57;1141314;-72
2023/04/13 09:27:23;;;;;;;32.20;20.32;;;;;;;9.41;100.00;99633.89;4937944;57;1141180;-70
2023/04/13 09:32:29;;;;;;;33.97;20.20;;;;;;;9.52;100.00;99645.66;4918631;57;1141160;-70
2023/04/13 09:37:38;;;;;;;33.77;20.10;;;;;;;9.63;100.00;99655.77;4918461;56;1141099;-74
2023/04/13 09:42:56;;;;;;;33.48;20.35;;;;;;;9.69;100.00;99663.16;4919524;58;1141032;-74
2023/04/13 09:48:07;;;;;;;33.50;18.80;;;;;;;9.70;100.00;99650.31;5016024;58;1140913;-74
2023/04/13 09:53:13;;;;;;;31.02;19.05;;;;;;;9.81;100.00;99653.67;5055241;56;1140851;-72
2023/04/13 09:58:18;;;;;;;35.73;21.80;;;;;;;9.98;100.00;99642.09;5085145;56;1140912;-70
2023/04/13 10:03:25;;;;;;;38.60;22.93;;;;;;;10.15;100.00;99638.30;5093927;56;1140987;-75
2023/04/13 10:08:32;;;;;;;27.07;17.07;;;;;;;10.31;100.00;99635.63;4998628;56;1143025;-74
2023/04/13 10:13:56;;;;;;;36.03;18.53;;;;;;;10.42;100.00;99643.41;5009646;56;1142981;-74
2023/04/13 10:19:12;;;;;;;37.50;17.97;;;;;;;10.57;100.00;99642.85;5022583;56;1143066;-75
2023/04/13 10:24:20;;;;;;;30.08;19.10;;;;;;;10.94;100.00;99628.89;5042190;56;1142950;-74
2023/04/13 10:29:33;;;;;;;29.00;19.40;;;;;;;11.21;100.00;99634.23;5023161;56;1143097;-74
2023/04/13 10:34:38;;;;;;;55.35;21.50;;;;;;;11.34;100.00;99640.52;5023036;56;1143018;-74
2023/04/13 10:39:45;;;;;;;39.40;20.02;;;;;;;11.46;100.00;99643.33;5022258;56;1143209;-75
2023/04/13 10:44:54;;;;;;;30.27;17.63;;;;;;;11.60;100.00;99633.59;5135662;55;1142973;-75
2023/04/13 10:49:59;;;;;;;21.53;15.67;;;;;;;11.77;100.00;99639.09;5161154;55;1143095;-74
2023/04/13 10:55:08;;;;;;;25.97;16.87;;;;;;;11.98;100.00;99641.83;5192652;55;1143398;-74
2023/04/13 11:00:25;;;;;;;24.40;15.88;;;;;;;12.31;100.00;99637.70;5170635;55;1142997;-75
2023/04/13 11:05:28;;;;;;;39.63;23.77;;;;;;;12.51;100.00;99650.80;5119519;55;1143075;-74
2023/04/13 11:10:33;;;;;;;20.00;14.30;;;;;;;12.62;100.00;99654.05;5106226;55;1143122;-74
2023/04/13 11:15:39;;;;;;;23.93;14.63;;;;;;;12.73;100.00;99652.97;5106999;56;1143241;-74
2023/04/13 11:20:45;;;;;;;23.33;14.87;;;;;;;12.91;100.00;99645.81;5126504;55;1143163;-74
2023/04/13 11:26:03;;;;;;;22.57;13.27;;;;;;;13.03;100.00;99653.85;5106816;55;1143016;-73
2023/04/13 11:31:04;;;;;;;;;;;;;;;13.11;100.00;99642.97;5109310;55;1142971;-74
2023/04/13 11:36:10;;;;;;;161.33;55.40;;;;;;;13.18;100.00;99653.31;5144152;55;979785;-74
2023/04/13 11:41:16;;;;;;;24.27;13.93;;;;;;;13.20;100.00;99650.01;5106444;55;1143117;-74
2023/04/13 11:46:24;;;;;;;18.50;13.87;;;;;;;13.24;100.00;99655.35;5165366;55;1143087;-74
2023/04/13 11:51:31;;;;;;;19.23;13.62;;;;;;;13.27;100.00;99657.20;5213470;55;1142969;-74
2023/04/13 11:56:36;;;;;;;35.30;23.63;;;;;;;13.32;100.00;99653.56;5192726;55;1168903;-74
2023/04/13 12:01:50;;;;;;;63.17;39.97;;;;;;;13.36;100.00;99654.09;5118730;55;1143047;-74
2023/04/13 12:06:56;;;;;;;24.37;17.33;;;;;;;13.40;100.00;99658.09;5106612;56;1143245;-74
2023/04/13 12:12:03;;;;;;;21.03;13.50;;;;;;;13.41;100.00;99654.95;5126932;55;1143304;-74
2023/04/13 12:17:13;;;;;;;25.82;18.65;;;;;;;13.52;100.00;99653.34;5121844;56;1143352;-74
2023/04/13 12:22:20;;;;;;;21.30;15.60;;;;;;;13.59;100.00;99659.20;5092043;56;1143086;-74
2023/04/13 12:27:26;;;;;;;23.15;15.18;;;;;;;13.69;100.00;99675.01;5126613;56;1143079;-74
2023/04/13 12:32:31;;;;;;;25.07;13.83;;;;;;;13.66;100.00;99672.17;5106145;56;1143033;-74
2023/04/13 12:37:43;;;;;;;22.07;14.50;;;;;;;13.64;100.00;99675.97;5106256;56;1143017;-74
2023/04/13 12:42:50;;;;;;;21.07;14.83;;;;;;;13.52;100.00;99667.95;5167711;55;1143089;-74
2023/04/13 12:47:55;;;;;;;20.10;13.10;;;;;;;13.43;100.00;99665.76;5213276;55;1143030;-74
2023/04/13 12:53:01;;;;;;;17.30;12.77;;;;;;;13.43;100.00;99671.56;5192873;55;1142928;-73
2023/04/13 12:58:07;;;;;;;20.83;12.77;;;;;;;13.45;100.00;99674.88;5179038;55;1143249;-74
2023/04/13 13:03:12;;;;;;;18.13;12.30;;;;;;;13.53;100.00;99681.08;5188168;55;1143094;-74
2023/04/13 13:08:18;;;;;;;21.07;14.45;;;;;;;13.57;100.00;99685.09;5107194;55;1143026;-74
2023/04/13 13:13:23;;;;;;;33.20;19.87;;;;;;;13.53;100.00;99690.38;5107210;54;1143064;-74
2023/04/13 13:18:30;;;;;;;21.13;14.07;;;;;;;13.44;100.00;99692.66;5126853;56;1143089;-74
2023/04/13 13:23:35;;;;;;;7.53;5.37;;;;;;;13.33;100.00;99698.22;5106430;55;1142981;-74
2023/04/13 13:28:41;;;;;;;11.53;7.30;;;;;;;13.20;100.00;99696.48;4971389;57;1138929;-74
2023/04/13 13:33:47;;;;;;;10.10;6.03;;;;;;;12.95;100.00;99720.16;4941713;57;1140829;-74
2023/04/13 13:38:52;;;;;;;8.03;4.00;;;;;;;12.71;100.00;99716.45;5086175;56;1141097;-74
2023/04/13 13:43:58;;;;;;;11.63;4.43;;;;;;;12.51;100.00;99735.68;5085996;56;1138912;-73
2023/04/13 13:49:04;;;;;;;16.97;8.60;;;;;;;12.21;100.00;99746.97;5112931;55;1140991;-74
2023/04/13 13:54:29;;;;;;;14.03;8.58;;;;;;;11.96;100.00;99751.61;5048275;57;1141280;-74
2023/04/13 13:59:35;;;;;;;17.80;7.87;;;;;;;11.61;100.00;99747.80;5177392;55;1140847;-74
2023/04/13 14:04:40;;;;;;;25.40;14.13;;;;;;;11.54;100.00;99763.09;5132162;55;1141047;-74
2023/04/13 14:09:46;;;;;;;12.28;6.25;;;;;;;11.42;100.00;99757.63;5096818;56;1143207;-74
2023/04/13 14:14:52;;;;;;;23.40;8.43;;;;;;;11.34;100.00;99758.81;5017886;57;1141111;-74
2023/04/13 14:19:57;;;;;;;20.67;9.80;;;;;;;11.26;100.00;99753.76;5085337;56;1141042;-73
2023/04/13 14:25:04;;;;;;;16.77;9.53;;;;;;;11.23;100.00;99765.11;5096682;55;1140950;-74
2023/04/13 14:30:10;;;;;;;43.50;16.63;;;;;;;11.23;100.00;99769.92;5015912;57;1140888;-73
2023/04/13 14:35:22;;;;;;;57.03;20.40;;;;;;;11.21;100.00;99774.52;5046166;56;1143091;-74
2023/04/13 14:40:28;;;;;;;54.67;21.57;;;;;;;11.21;100.00;99778.97;5094951;55;1143151;-74
2023/04/13 14:45:33;;;;;;;44.33;19.13;;;;;;;11.19;100.00;99777.78;5159959;55;1143042;-74
2023/04/13 14:50:40;;;;;;;27.20;11.80;;;;;;;11.10;100.00;99789.23;5024871;57;1143223;-74
2023/04/13 14:55:46;;;;;;;32.53;15.75;;;;;;;11.01;100.00;99796.66;5011143;57;1143206;-74
2023/04/13 15:00:52;;;;;;;37.10;16.67;;;;;;;11.02;100.00;99798.82;5030099;57;1143145;-73
2023/04/13 15:05:58;;;;;;;36.77;19.53;;;;;;;11.10;100.00;99798.48;4951788;57;1143053;-73
2023/04/13 15:11:04;;;;;;;38.43;17.87;;;;;;;11.15;100.00;99802.05;5010994;57;1143075;-74
2023/04/13 15:16:10;;;;;;;45.90;24.00;;;;;;;11.13;100.00;99797.38;5030713;56;1143076;-74
2023/04/13 15:21:16;;;;;;;52.23;27.43;;;;;;;11.29;100.00;99798.97;5011126;57;1142987;-74
2023/04/13 15:26:22;;;;;;;49.85;22.07;;;;;;;11.27;100.00;99804.41;5011002;56;1143342;-74
2023/04/13 15:31:28;;;;;;;73.83;40.60;;;;;;;11.20;100.00;99805.09;5088720;56;1143206;-75
2023/04/13 15:36:34;;;;;;;60.10;33.00;;;;;;;11.10;100.00;99808.23;5049748;56;1142988;-74
2023/04/13 15:41:40;;;;;;;44.40;21.83;;;;;;;11.05;100.00;99804.68;4931557;56;1143010;-74
2023/04/13 15:46:46;;;;;;;38.28;19.95;;;;;;;11.00;100.00;99816.16;4969934;57;1143497;-75
2023/04/13 15:51:52;;;;;;;37.87;18.33;;;;;;;11.04;100.00;99820.69;5155149;55;1142979;-74
2023/04/13 15:56:58;;;;;;;50.17;24.80;;;;;;;11.08;100.00;99816.80;5181319;55;1143206;-74
2023/04/13 16:02:03;;;;;;;37.40;19.60;;;;;;;11.14;100.00;99822.39;5173955;55;1142955;-74
2023/04/13 16:07:09;;;;;;;35.17;19.80;;;;;;;11.14;100.00;99822.39;5203041;55;1143029;-74
2023/04/13 16:12:16;;;;;;;34.83;17.93;;;;;;;11.15;100.00;99831.97;5134492;55;1143161;-74
2023/04/13 16:17:30;;;;;;;26.63;14.63;;;;;;;11.15;100.00;99818.73;5096966;56;1143021;-74
2023/04/13 16:22:36;;;;;;;23.92;12.68;;;;;;;11.24;100.00;99821.05;5116735;56;1142950;-74
2023/04/13 16:27:46;;;;;;;39.53;19.63;;;;;;;11.39;100.00;99818.80;5097351;55;1142974;-74
2023/04/13 16:32:52;;;;;;;78.93;44.40;;;;;;;11.53;100.00;99827.14;5096309;56;1142970;-73
2023/04/13 16:37:58;;;;;;;130.07;68.17;;;;;;;11.61;100.00;99826.42;5116308;56;1143128;-75
2023/04/13 16:43:05;;;;;;;408.97;192.17;;;;;;;11.63;100.00;99824.47;5096909;55;1145189;-81
2023/04/13 16:48:10;;;;;;;362.67;191.83;;;;;;;11.62;100.00;99827.60;5095766;55;1147097;-73
2023/04/13 16:53:17;;;;;;;66.27;37.27;;;;;;;11.47;100.00;99830.34;5158494;55;1156889;-75
2023/04/13 16:58:23;;;;;;;35.35;19.65;;;;;;;11.43;100.00;99838.73;5127192;55;1142951;-73
2023/04/13 17:03:29;;;;;;;23.67;13.83;;;;;;;11.33;100.00;99840.05;5128601;55;1143009;-74
2023/04/13 17:08:34;;;;;;;20.67;12.77;;;;;;;11.21;100.00;99838.52;5115374;56;1142995;-74
2023/04/13 17:13:40;;;;;;;23.23;13.03;;;;;;;11.10;100.00;99849.26;5063906;56;1143144;-75
2023/04/13 17:18:45;;;;;;;20.23;11.45;;;;;;;11.00;100.00;99851.08;5025728;56;1143265;-74
2023/04/13 17:23:51;;;;;;;16.80;8.57;;;;;;;10.83;100.00;99865.32;5095662;56;1143046;-74
2023/04/13 17:28:57;;;;;;;10.27;7.00;;;;;;;10.71;100.00;99873.48;5082439;55;1140942;-75
2023/04/13 17:34:02;;;;;;;10.93;6.23;;;;;;;10.60;100.00;99870.47;5049808;56;1140966;-73
2023/04/13 17:39:08;;;;;;;12.60;7.57;;;;;;;10.54;100.00;99878.96;5020535;56;1140926;-74
2023/04/13 17:44:14;;;;;;;9.50;6.47;;;;;;;10.47;100.00;99889.70;5137443;55;1140964;-75
2023/04/13 17:49:24;;;;;;;12.00;6.97;;;;;;;10.39;100.00;99883.75;5096820;56;1138934;-74
2023/04/13 17:54:30;;;;;;;19.92;12.80;;;;;;;10.42;100.00;99894.06;5163761;55;1141094;-74
2023/04/13 17:59:35;;;;;;;20.70;11.67;;;;;;;10.47;100.00;99898.47;5096502;55;1142960;-73
2023/04/13 18:04:41;;;;;;;33.97;18.17;;;;;;;10.53;100.00;99907.69;5146921;55;1142964;-75
2023/04/13 18:09:46;;;;;;;35.97;21.23;;;;;;;10.53;100.00;99912.98;5181313;55;1142954;-73
2023/04/13 18:14:52;;;;;;;23.77;12.60;;;;;;;10.56;100.00;99921.94;5116185;55;1142908;-75
2023/04/13 18:19:58;;;;;;;22.20;12.30;;;;;;;10.56;100.00;99927.23;5150808;55;1143176;-74
2023/04/13 18:25:05;;;;;;;21.90;13.43;;;;;;;10.52;100.00;99928.00;5119268;55;1143010;-75
2023/04/13 18:30:12;;;;;;;42.63;24.17;;;;;;;10.53;100.00;99934.13;5177207;55;1143228;-75
2023/04/13 18:35:18;;;;;;;27.70;14.57;;;;;;;10.69;100.00;99941.57;5105937;55;1143569;-75
2023/04/13 18:40:24;;;;;;;30.27;16.45;;;;;;;10.64;100.00;99943.77;5096329;56;1143085;-76
2023/04/13 18:45:29;;;;;;;26.52;14.53;;;;;;;10.48;100.00;99945.58;4990954;57;1142904;-76
2023/04/13 18:50:35;;;;;;;27.08;13.26;;;;;;;10.33;100.00;99947.73;4932916;57;1142945;-76
2023/04/13 18:55:41;;;;;;;29.20;14.50;;;;;;;10.25;100.00;99943.57;5065908;56;1143036;-76
2023/04/13 19:00:48;;;;;;;1082.37;615.53;;;;;;;10.20;100.00;99947.95;5128922;55;1143116;-75
2023/04/13 19:05:55;;;;;;;905.37;640.90;;;;;;;10.18;100.00;99949.88;5137403;55;1149442;-75
2023/04/13 19:11:00;;;;;;;609.97;165.50;;;;;;;10.07;100.00;99947.28;5095568;56;1147180;-76
2023/04/13 19:16:07;;;;;;;263.40;58.90;;;;;;;9.95;100.00;99950.09;5148872;55;1147222;-75
2023/04/13 19:21:12;;;;;;;25.57;11.67;;;;;;;9.98;100.00;99954.65;5202353;55;1142977;-75
2023/04/13 19:26:18;;;;;;;16.07;9.50;;;;;;;10.02;100.00;99949.95;5182593;55;1140999;-76
2023/04/13 19:31:23;;;;;;;18.00;10.10;;;;;;;10.00;100.00;99954.04;5182694;55;1140812;-76
2023/04/13 19:36:30;;;;;;;17.90;9.13;;;;;;;9.99;100.00;99956.33;5153359;55;1143191;-76
2023/04/13 19:41:38;;;;;;;23.87;12.30;;;;;;;9.87;100.00;99948.95;5097426;56;1138938;-76
2023/04/13 19:46:45;;;;;;;17.63;9.33;;;;;;;9.85;100.00;99950.05;5098290;55;1141098;-74
2023/04/13 19:51:50;;;;;;;23.15;11.60;;;;;;;9.78;100.00;99952.34;5140364;55;1139078;-75
2023/04/13 19:56:56;;;;;;;40.67;27.70;;;;;;;9.72;100.00;99956.83;5116877;55;1140986;-77
2023/04/13 20:02:01;;;;;;;30.57;14.87;;;;;;;9.80;100.00;99961.46;5164908;55;1140872;-76
2023/04/13 20:07:07;;;;;;;35.87;23.17;;;;;;;9.92;100.00;99956.50;5128389;55;1140917;-76
2023/04/13 20:12:13;;;;;;;35.07;18.20;;;;;;;9.95;100.00;99958.02;5200273;55;1140948;-76
2023/04/13 20:17:19;;;;;;;37.48;19.12;;;;;;;9.90;100.00;99954.47;5187577;55;1141119;-77
2023/04/13 20:22:25;;;;;;;32.88;15.98;;;;;;;9.90;100.00;99972.95;5166708;55;1140918;-76
2023/04/13 20:27:33;;;;;;;26.35;13.08;;;;;;;9.91;100.00;99971.99;5203625;55;1140890;-76
2023/04/13 20:32:38;;;;;;;56.27;22.57;;;;;;;9.95;100.00;99972.07;5183063;55;1140979;-76
2023/04/13 20:37:45;;;;;;;27.57;14.17;;;;;;;9.81;100.00;99974.55;5183468;55;1140940;-76
2023/04/13 20:42:51;;;;;;;15.40;9.50;;;;;;;9.79;100.00;99979.59;5162064;55;1140954;-76
2023/04/13 20:48:00;;;;;;;17.97;9.50;;;;;;;9.72;100.00;99993.80;5128101;55;1138851;-77
2023/04/13 20:53:07;;;;;;;18.53;10.37;;;;;;;9.66;100.00;99985.05;5102917;55;1138845;-76
2023/04/13 20:58:12;;;;;;;17.70;11.00;;;;;;;9.67;100.00;99992.49;5096603;56;1141016;-76
2023/04/13 21:03:17;;;;;;;31.50;15.50;;;;;;;9.70;100.00;99994.89;5116624;55;1140804;-76
2023/04/13 21:08:23;;;;;;;26.77;11.53;;;;;;;9.78;100.00;99993.76;5107551;55;1145710;-76
2023/04/13 21:13:29;;;;;;;16.35;10.72;;;;;;;9.72;100.00;100002.20;5112734;55;1140823;-76
2023/04/13 21:18:35;;;;;;;14.83;9.20;;;;;;;9.57;100.00;99991.10;5127561;55;1143040;-76
2023/04/13 21:23:41;;;;;;;19.00;11.60;;;;;;;9.51;100.00;99996.39;5105105;55;1138977;-76
2023/04/13 21:28:46;;;;;;;12.47;8.73;;;;;;;9.46;100.00;99995.11;5096654;56;1140940;-76
2023/04/13 21:33:53;;;;;;;15.35;8.18;;;;;;;9.44;100.00;99993.91;5095574;56;1139027;-76
2023/04/13 21:38:59;;;;;;;13.33;8.53;;;;;;;9.39;100.00;99990.80;5116884;56;1138687;-76
2023/04/13 21:44:04;;;;;;;14.10;8.30;;;;;;;9.27;100.00;99989.15;5096851;56;1138808;-76
2023/04/13 21:49:10;;;;;;;17.30;9.07;;;;;;;9.23;100.00;99979.80;5096569;55;1138790;-77
2023/04/13 21:54:15;;;;;;;15.40;9.50;;;;;;;9.28;100.00;99980.75;5116607;55;1139017;-77
2023/04/13 21:59:25;;;;;;;13.27;9.77;;;;;;;9.31;100.00;99973.44;5097029;56;1138858;-76
2023/04/13 22:04:28;;;;;;;18.80;9.17;;;;;;;9.25;100.00;99979.67;5139091;55;1138849;-76
2023/04/13 22:09:34;;;;;;;26.73;12.88;;;;;;;9.22;100.00;99974.16;5172308;55;1138774;-77
2023/04/13 22:14:40;;;;;;;16.13;9.57;;;;;;;9.21;100.00;99971.16;5151800;56;1140917;-76
2023/04/13 22:19:45;;;;;;;18.70;8.50;;;;;;;9.17;100.00;99971.04;5096073;56;1138854;-76
2023/04/13 22:24:52;;;;;;;30.77;12.90;;;;;;;9.24;100.00;99970.08;5152159;56;1146612;-76
2023/04/13 22:29:58;;;;;;;33.87;12.10;;;;;;;9.30;100.00;99965.16;5116094;56;1140939;-77
2023/04/13 22:35:03;;;;;;;26.00;12.33;;;;;;;9.30;100.00;99968.28;5151625;55;1140904;-76
2023/04/13 22:40:10;;;;;;;26.97;14.97;;;;;;;9.37;100.00;99974.23;5122599;55;1140950;-77
2023/04/13 22:45:15;;;;;;;28.77;14.10;;;;;;;9.47;100.00;99973.84;5003405;57;1140960;-76
2023/04/13 22:50:22;;;;;;;43.50;18.15;;;;;;;9.48;100.00;99969.39;4995906;56;1140836;-78
2023/04/13 22:55:27;;;;;;;31.50;13.83;;;;;;;9.47;100.00;99974.34;4839373;58;1140849;-76